sensor_id;sensor_type;location;lat;lon;timestamp;P1;durP1;ratioP1;P2;durP2;ratioP2
23716;SDS011;22094;52.130;5.598;2023-05-07T00:01:29;13.23;;;11.82;;
23716;SDS011;22094;52.130;5.598;2023-05-07T00:03:55;16.08;;;12.52;;
23716;SDS011;22094;52.130;5.598;2023-05-07T00:06:20;13.63;;;12.20;;
23716;SDS011;22094;52.130;5.598;2023-05-07T00:08:46;13.50;;;11.77;;
23716;SDS011;22094;52.130;5.598;2023-05-07T00:11:11;15.27;;;12.80;;
23716;SDS011;22094;52.130;5.598;2023-05-07T00:13:37;13.05;;;11.68;;
23716;SDS011;22094;52.130;5.598;2023-05-07T00:16:03;12.45;;;11.30;;
23716;SDS011;22094;52.130;5.598;2023-05-07T00:18:28;15.15;;;12.05;;
23716;SDS011;22094;52.130;5.598;2023-05-07T00:20:54;14.70;;;12.50;;
23716;SDS011;22094;52.130;5.598;2023-05-07T00:23:21;13.57;;;12.18;;
23716;SDS011;22094;52.130;5.598;2023-05-07T00:25:47;13.25;;;11.95;;
23716;SDS011;22094;52.130;5.598;2023-05-07T00:28:12;14.07;;;12.63;;
23716;SDS011;22094;52.130;5.598;2023-05-07T00:30:38;13.27;;;11.98;;
23716;SDS011;22094;52.130;5.598;2023-05-07T00:33:03;14.52;;;11.93;;
23716;SDS011;22094;52.130;5.598;2023-05-07T00:35:29;13.90;;;12.50;;
23716;SDS011;22094;52.130;5.598;2023-05-07T00:37:55;13.50;;;12.10;;
23716;SDS011;22094;52.130;5.598;2023-05-07T00:40:20;13.20;;;11.88;;
23716;SDS011;22094;52.130;5.598;2023-05-07T00:42:46;14.00;;;12.27;;
23716;SDS011;22094;52.130;5.598;2023-05-07T00:45:14;17.40;;;12.35;;
23716;SDS011;22094;52.130;5.598;2023-05-07T00:47:40;14.50;;;12.65;;
23716;SDS011;22094;52.130;5.598;2023-05-07T00:50:07;14.20;;;12.30;;
23716;SDS011;22094;52.130;5.598;2023-05-07T00:52:34;13.25;;;11.95;;
23716;SDS011;22094;52.130;5.598;2023-05-07T00:55:05;14.85;;;13.05;;
23716;SDS011;22094;52.130;5.598;2023-05-07T00:57:37;17.33;;;12.40;;
23716;SDS011;22094;52.130;5.598;2023-05-07T01:00:06;16.20;;;12.63;;
23716;SDS011;22094;52.130;5.598;2023-05-07T01:02:37;15.77;;;14.18;;
23716;SDS011;22094;52.130;5.598;2023-05-07T01:05:04;19.10;;;13.68;;
23716;SDS011;22094;52.130;5.598;2023-05-07T01:07:32;15.30;;;13.55;;
23716;SDS011;22094;52.130;5.598;2023-05-07T01:09:59;19.40;;;14.60;;
23716;SDS011;22094;52.130;5.598;2023-05-07T01:12:25;16.30;;;14.60;;
23716;SDS011;22094;52.130;5.598;2023-05-07T01:14:52;20.23;;;15.30;;
23716;SDS011;22094;52.130;5.598;2023-05-07T01:17:18;19.10;;;15.07;;
23716;SDS011;22094;52.130;5.598;2023-05-07T01:19:44;18.05;;;15.10;;
23716;SDS011;22094;52.130;5.598;2023-05-07T01:22:10;18.75;;;16.33;;
23716;SDS011;22094;52.130;5.598;2023-05-07T01:24:36;18.30;;;16.02;;
23716;SDS011;22094;52.130;5.598;2023-05-07T01:27:03;18.25;;;14.93;;
23716;SDS011;22094;52.130;5.598;2023-05-07T01:29:29;17.17;;;15.05;;
23716;SDS011;22094;52.130;5.598;2023-05-07T01:31:57;17.27;;;14.48;;
23716;SDS011;22094;52.130;5.598;2023-05-07T01:34:25;19.40;;;15.27;;
23716;SDS011;22094;52.130;5.598;2023-05-07T01:36:52;17.70;;;15.45;;
23716;SDS011;22094;52.130;5.598;2023-05-07T01:39:20;16.50;;;14.70;;
23716;SDS011;22094;52.130;5.598;2023-05-07T01:41:48;22.48;;;15.68;;
23716;SDS011;22094;52.130;5.598;2023-05-07T01:44:14;17.85;;;15.63;;
23716;SDS011;22094;52.130;5.598;2023-05-07T01:46:41;17.95;;;15.93;;
23716;SDS011;22094;52.130;5.598;2023-05-07T01:49:07;19.52;;;15.93;;
23716;SDS011;22094;52.130;5.598;2023-05-07T01:51:33;17.83;;;15.35;;
23716;SDS011;22094;52.130;5.598;2023-05-07T01:54:00;17.73;;;15.60;;
23716;SDS011;22094;52.130;5.598;2023-05-07T01:56:27;18.25;;;16.00;;
23716;SDS011;22094;52.130;5.598;2023-05-07T01:58:53;21.00;;;17.27;;
23716;SDS011;22094;52.130;5.598;2023-05-07T02:01:18;18.85;;;16.85;;
23716;SDS011;22094;52.130;5.598;2023-05-07T02:03:44;18.85;;;16.85;;
23716;SDS011;22094;52.130;5.598;2023-05-07T02:06:10;20.58;;;16.80;;
23716;SDS011;22094;52.130;5.598;2023-05-07T02:08:35;18.50;;;16.38;;
23716;SDS011;22094;52.130;5.598;2023-05-07T02:11:01;19.42;;;17.27;;
23716;SDS011;22094;52.130;5.598;2023-05-07T02:13:28;18.27;;;16.48;;
23716;SDS011;22094;52.130;5.598;2023-05-07T02:15:57;19.33;;;15.65;;
23716;SDS011;22094;52.130;5.598;2023-05-07T02:18:22;17.77;;;15.98;;
23716;SDS011;22094;52.130;5.598;2023-05-07T02:20:48;18.40;;;16.20;;
23716;SDS011;22094;52.130;5.598;2023-05-07T02:23:13;18.90;;;16.90;;
23716;SDS011;22094;52.130;5.598;2023-05-07T02:25:39;20.15;;;16.45;;
23716;SDS011;22094;52.130;5.598;2023-05-07T02:28:05;19.48;;;16.15;;
23716;SDS011;22094;52.130;5.598;2023-05-07T02:30:31;18.85;;;16.85;;
23716;SDS011;22094;52.130;5.598;2023-05-07T02:32:57;17.90;;;16.00;;
23716;SDS011;22094;52.130;5.598;2023-05-07T02:35:26;17.20;;;15.18;;
23716;SDS011;22094;52.130;5.598;2023-05-07T02:37:52;19.77;;;16.73;;
23716;SDS011;22094;52.130;5.598;2023-05-07T02:40:17;19.20;;;16.70;;
23716;SDS011;22094;52.130;5.598;2023-05-07T02:42:43;19.08;;;15.70;;
23716;SDS011;22094;52.130;5.598;2023-05-07T02:45:09;21.13;;;16.08;;
23716;SDS011;22094;52.130;5.598;2023-05-07T02:47:35;19.40;;;16.83;;
23716;SDS011;22094;52.130;5.598;2023-05-07T02:50:01;18.65;;;16.63;;
23716;SDS011;22094;52.130;5.598;2023-05-07T02:52:27;18.38;;;16.13;;
23716;SDS011;22094;52.130;5.598;2023-05-07T02:54:52;19.00;;;15.82;;
23716;SDS011;22094;52.130;5.598;2023-05-07T02:57:18;18.10;;;15.98;;
23716;SDS011;22094;52.130;5.598;2023-05-07T02:59:43;20.73;;;18.42;;
23716;SDS011;22094;52.130;5.598;2023-05-07T03:02:09;19.70;;;16.10;;
23716;SDS011;22094;52.130;5.598;2023-05-07T03:04:35;20.23;;;17.17;;
23716;SDS011;22094;52.130;5.598;2023-05-07T03:07:01;18.75;;;16.70;;
23716;SDS011;22094;52.130;5.598;2023-05-07T03:09:26;19.65;;;17.38;;
23716;SDS011;22094;52.130;5.598;2023-05-07T03:11:52;20.20;;;16.92;;
23716;SDS011;22094;52.130;5.598;2023-05-07T03:14:18;21.77;;;17.70;;
23716;SDS011;22094;52.130;5.598;2023-05-07T03:16:43;20.65;;;18.55;;
23716;SDS011;22094;52.130;5.598;2023-05-07T03:19:09;20.33;;;18.17;;
23716;SDS011;22094;52.130;5.598;2023-05-07T03:21:34;23.02;;;18.25;;
23716;SDS011;22094;52.130;5.598;2023-05-07T03:24:00;22.63;;;18.20;;
23716;SDS011;22094;52.130;5.598;2023-05-07T03:26:26;30.02;;;19.63;;
23716;SDS011;22094;52.130;5.598;2023-05-07T03:28:52;25.90;;;19.17;;
23716;SDS011;22094;52.130;5.598;2023-05-07T03:31:17;20.63;;;18.42;;
23716;SDS011;22094;52.130;5.598;2023-05-07T03:33:56;21.67;;;18.50;;
23716;SDS011;22094;52.130;5.598;2023-05-07T03:36:22;25.77;;;18.35;;
23716;SDS011;22094;52.130;5.598;2023-05-07T03:38:48;20.63;;;18.48;;
23716;SDS011;22094;52.130;5.598;2023-05-07T03:41:14;23.23;;;19.13;;
23716;SDS011;22094;52.130;5.598;2023-05-07T03:43:40;22.63;;;19.98;;
23716;SDS011;22094;52.130;5.598;2023-05-07T03:46:06;24.75;;;18.83;;
23716;SDS011;22094;52.130;5.598;2023-05-07T03:48:32;27.15;;;19.88;;
23716;SDS011;22094;52.130;5.598;2023-05-07T03:50:58;24.48;;;19.67;;
23716;SDS011;22094;52.130;5.598;2023-05-07T03:53:23;22.80;;;19.27;;
23716;SDS011;22094;52.130;5.598;2023-05-07T03:55:49;24.05;;;19.73;;
23716;SDS011;22094;52.130;5.598;2023-05-07T03:58:15;26.95;;;19.50;;
23716;SDS011;22094;52.130;5.598;2023-05-07T04:00:43;25.92;;;21.02;;
23716;SDS011;22094;52.130;5.598;2023-05-07T04:03:26;22.58;;;19.92;;
23716;SDS011;22094;52.130;5.598;2023-05-07T04:05:52;27.10;;;20.58;;
23716;SDS011;22094;52.130;5.598;2023-05-07T04:08:17;26.27;;;21.02;;
23716;SDS011;22094;52.130;5.598;2023-05-07T04:10:43;26.60;;;20.90;;
23716;SDS011;22094;52.130;5.598;2023-05-07T04:13:09;27.00;;;20.25;;
23716;SDS011;22094;52.130;5.598;2023-05-07T04:15:35;25.33;;;20.52;;
23716;SDS011;22094;52.130;5.598;2023-05-07T04:18:01;23.35;;;20.73;;
23716;SDS011;22094;52.130;5.598;2023-05-07T04:20:26;25.33;;;20.17;;
23716;SDS011;22094;52.130;5.598;2023-05-07T04:22:52;24.65;;;20.85;;
23716;SDS011;22094;52.130;5.598;2023-05-07T04:25:18;26.27;;;19.60;;
23716;SDS011;22094;52.130;5.598;2023-05-07T04:27:43;24.15;;;19.73;;
23716;SDS011;22094;52.130;5.598;2023-05-07T04:30:09;26.52;;;20.30;;
23716;SDS011;22094;52.130;5.598;2023-05-07T04:32:35;23.02;;;20.05;;
23716;SDS011;22094;52.130;5.598;2023-05-07T04:35:02;22.10;;;19.75;;
23716;SDS011;22094;52.130;5.598;2023-05-07T04:37:28;23.92;;;19.70;;
23716;SDS011;22094;52.130;5.598;2023-05-07T04:39:53;25.75;;;19.92;;
23716;SDS011;22094;52.130;5.598;2023-05-07T04:42:19;22.15;;;19.65;;
23716;SDS011;22094;52.130;5.598;2023-05-07T04:44:45;22.35;;;20.02;;
23716;SDS011;22094;52.130;5.598;2023-05-07T04:47:10;26.65;;;21.00;;
23716;SDS011;22094;52.130;5.598;2023-05-07T04:49:37;23.52;;;20.92;;
23716;SDS011;22094;52.130;5.598;2023-05-07T04:52:03;24.20;;;21.40;;
23716;SDS011;22094;52.130;5.598;2023-05-07T04:54:29;26.70;;;22.02;;
23716;SDS011;22094;52.130;5.598;2023-05-07T04:56:55;25.25;;;22.10;;
23716;SDS011;22094;52.130;5.598;2023-05-07T04:59:21;23.38;;;21.08;;
23716;SDS011;22094;52.130;5.598;2023-05-07T05:01:46;27.17;;;20.85;;
23716;SDS011;22094;52.130;5.598;2023-05-07T05:04:12;24.40;;;21.08;;
23716;SDS011;22094;52.130;5.598;2023-05-07T05:06:38;23.50;;;21.10;;
23716;SDS011;22094;52.130;5.598;2023-05-07T05:09:04;27.65;;;21.98;;
23716;SDS011;22094;52.130;5.598;2023-05-07T05:11:30;24.90;;;21.52;;
23716;SDS011;22094;52.130;5.598;2023-05-07T05:13:56;27.25;;;22.23;;
23716;SDS011;22094;52.130;5.598;2023-05-07T05:16:21;25.27;;;22.60;;
23716;SDS011;22094;52.130;5.598;2023-05-07T05:18:50;25.38;;;22.50;;
23716;SDS011;22094;52.130;5.598;2023-05-07T05:21:20;25.80;;;22.33;;
23716;SDS011;22094;52.130;5.598;2023-05-07T05:24:04;25.83;;;22.98;;
23716;SDS011;22094;52.130;5.598;2023-05-07T05:26:30;24.75;;;22.05;;
23716;SDS011;22094;52.130;5.598;2023-05-07T05:28:56;23.95;;;21.38;;
23716;SDS011;22094;52.130;5.598;2023-05-07T05:31:22;25.80;;;22.67;;
23716;SDS011;22094;52.130;5.598;2023-05-07T05:33:47;24.70;;;22.10;;
23716;SDS011;22094;52.130;5.598;2023-05-07T05:36:13;24.77;;;22.05;;
23716;SDS011;22094;52.130;5.598;2023-05-07T05:38:39;25.05;;;22.33;;
23716;SDS011;22094;52.130;5.598;2023-05-07T05:41:05;27.77;;;22.85;;
23716;SDS011;22094;52.130;5.598;2023-05-07T05:43:31;24.98;;;22.27;;
23716;SDS011;22094;52.130;5.598;2023-05-07T05:45:56;24.10;;;21.60;;
23716;SDS011;22094;52.130;5.598;2023-05-07T05:48:22;22.90;;;20.50;;
23716;SDS011;22094;52.130;5.598;2023-05-07T05:50:48;25.02;;;22.38;;
23716;SDS011;22094;52.130;5.598;2023-05-07T05:53:14;24.88;;;22.38;;
23716;SDS011;22094;52.130;5.598;2023-05-07T05:55:41;24.40;;;21.90;;
23716;SDS011;22094;52.130;5.598;2023-05-07T05:58:07;25.15;;;22.45;;
23716;SDS011;22094;52.130;5.598;2023-05-07T06:00:33;23.92;;;21.45;;
23716;SDS011;22094;52.130;5.598;2023-05-07T06:02:59;22.13;;;19.92;;
23716;SDS011;22094;52.130;5.598;2023-05-07T06:05:25;24.23;;;21.63;;
23716;SDS011;22094;52.130;5.598;2023-05-07T06:07:51;22.33;;;20.13;;
23716;SDS011;22094;52.130;5.598;2023-05-07T06:10:16;22.20;;;20.00;;
23716;SDS011;22094;52.130;5.598;2023-05-07T06:12:42;22.20;;;19.75;;
23716;SDS011;22094;52.130;5.598;2023-05-07T06:15:08;22.00;;;19.77;;
23716;SDS011;22094;52.130;5.598;2023-05-07T06:17:34;23.05;;;20.65;;
23716;SDS011;22094;52.130;5.598;2023-05-07T06:19:59;24.17;;;20.95;;
23716;SDS011;22094;52.130;5.598;2023-05-07T06:22:25;22.80;;;20.40;;
23716;SDS011;22094;52.130;5.598;2023-05-07T06:24:51;23.60;;;21.10;;
23716;SDS011;22094;52.130;5.598;2023-05-07T06:27:17;23.23;;;20.83;;
23716;SDS011;22094;52.130;5.598;2023-05-07T06:29:44;25.77;;;22.33;;
23716;SDS011;22094;52.130;5.598;2023-05-07T06:32:10;25.13;;;22.50;;
23716;SDS011;22094;52.130;5.598;2023-05-07T06:34:37;25.58;;;22.98;;
23716;SDS011;22094;52.130;5.598;2023-05-07T06:37:03;23.92;;;21.42;;
23716;SDS011;22094;52.130;5.598;2023-05-07T06:39:29;23.63;;;21.25;;
23716;SDS011;22094;52.130;5.598;2023-05-07T06:41:55;24.33;;;21.73;;
23716;SDS011;22094;52.130;5.598;2023-05-07T06:44:21;22.65;;;20.45;;
23716;SDS011;22094;52.130;5.598;2023-05-07T06:46:47;22.73;;;20.25;;
23716;SDS011;22094;52.130;5.598;2023-05-07T06:49:14;23.08;;;20.05;;
23716;SDS011;22094;52.130;5.598;2023-05-07T06:51:40;22.23;;;19.70;;
23716;SDS011;22094;52.130;5.598;2023-05-07T06:54:06;21.40;;;19.20;;
23716;SDS011;22094;52.130;5.598;2023-05-07T06:56:32;21.27;;;19.17;;
23716;SDS011;22094;52.130;5.598;2023-05-07T06:59:02;22.42;;;19.20;;
23716;SDS011;22094;52.130;5.598;2023-05-07T07:01:28;22.73;;;20.52;;
23716;SDS011;22094;52.130;5.598;2023-05-07T07:03:54;22.40;;;19.90;;
23716;SDS011;22094;52.130;5.598;2023-05-07T07:06:20;20.23;;;18.13;;
23716;SDS011;22094;52.130;5.598;2023-05-07T07:08:46;20.92;;;18.77;;
23716;SDS011;22094;52.130;5.598;2023-05-07T07:11:12;19.80;;;17.70;;
23716;SDS011;22094;52.130;5.598;2023-05-07T07:13:38;20.65;;;18.50;;
23716;SDS011;22094;52.130;5.598;2023-05-07T07:16:05;20.73;;;18.52;;
23716;SDS011;22094;52.130;5.598;2023-05-07T07:18:31;21.60;;;19.40;;
23716;SDS011;22094;52.130;5.598;2023-05-07T07:20:57;23.40;;;20.95;;
23716;SDS011;22094;52.130;5.598;2023-05-07T07:23:23;23.48;;;21.25;;
23716;SDS011;22094;52.130;5.598;2023-05-07T07:25:49;24.67;;;22.13;;
23716;SDS011;22094;52.130;5.598;2023-05-07T07:28:15;25.20;;;22.50;;
23716;SDS011;22094;52.130;5.598;2023-05-07T07:30:40;26.85;;;24.13;;
23716;SDS011;22094;52.130;5.598;2023-05-07T07:33:06;26.58;;;23.90;;
23716;SDS011;22094;52.130;5.598;2023-05-07T07:35:32;25.67;;;23.08;;
23716;SDS011;22094;52.130;5.598;2023-05-07T07:37:58;25.95;;;23.27;;
23716;SDS011;22094;52.130;5.598;2023-05-07T07:40:25;24.98;;;22.27;;
23716;SDS011;22094;52.130;5.598;2023-05-07T07:42:51;24.35;;;21.92;;
23716;SDS011;22094;52.130;5.598;2023-05-07T07:45:17;24.77;;;22.33;;
23716;SDS011;22094;52.130;5.598;2023-05-07T07:47:43;22.20;;;19.95;;
23716;SDS011;22094;52.130;5.598;2023-05-07T07:50:10;23.33;;;21.10;;
23716;SDS011;22094;52.130;5.598;2023-05-07T07:52:36;22.55;;;20.17;;
23716;SDS011;22094;52.130;5.598;2023-05-07T07:55:02;23.00;;;20.42;;
23716;SDS011;22094;52.130;5.598;2023-05-07T07:57:28;22.17;;;19.85;;
23716;SDS011;22094;52.130;5.598;2023-05-07T07:59:54;20.65;;;18.60;;
23716;SDS011;22094;52.130;5.598;2023-05-07T08:02:20;21.40;;;19.20;;
23716;SDS011;22094;52.130;5.598;2023-05-07T08:04:45;21.52;;;19.50;;
23716;SDS011;22094;52.130;5.598;2023-05-07T08:07:12;23.38;;;20.85;;
23716;SDS011;22094;52.130;5.598;2023-05-07T08:09:38;24.25;;;21.35;;
23716;SDS011;22094;52.130;5.598;2023-05-07T08:12:04;23.35;;;20.77;;
23716;SDS011;22094;52.130;5.598;2023-05-07T08:14:30;24.10;;;21.52;;
23716;SDS011;22094;52.130;5.598;2023-05-07T08:16:56;23.40;;;20.27;;
23716;SDS011;22094;52.130;5.598;2023-05-07T08:19:22;21.77;;;19.48;;
23716;SDS011;22094;52.130;5.598;2023-05-07T08:21:48;20.85;;;18.77;;
23716;SDS011;22094;52.130;5.598;2023-05-07T08:24:17;20.80;;;18.70;;
23716;SDS011;22094;52.130;5.598;2023-05-07T08:26:43;19.60;;;17.80;;
23716;SDS011;22094;52.130;5.598;2023-05-07T08:29:10;19.23;;;17.33;;
23716;SDS011;22094;52.130;5.598;2023-05-07T08:31:36;20.35;;;18.15;;
23716;SDS011;22094;52.130;5.598;2023-05-07T08:34:04;21.35;;;19.08;;
23716;SDS011;22094;52.130;5.598;2023-05-07T08:36:31;21.33;;;18.65;;
23716;SDS011;22094;52.130;5.598;2023-05-07T08:38:57;22.42;;;20.13;;
23716;SDS011;22094;52.130;5.598;2023-05-07T08:41:23;22.27;;;20.08;;
23716;SDS011;22094;52.130;5.598;2023-05-07T08:43:49;23.23;;;20.83;;
23716;SDS011;22094;52.130;5.598;2023-05-07T08:46:16;30.42;;;26.13;;
23716;SDS011;22094;52.130;5.598;2023-05-07T08:48:49;25.70;;;22.65;;
23716;SDS011;22094;52.130;5.598;2023-05-07T08:51:17;25.17;;;22.65;;
23716;SDS011;22094;52.130;5.598;2023-05-07T08:53:46;26.42;;;23.73;;
23716;SDS011;22094;52.130;5.598;2023-05-07T08:56:14;30.27;;;26.55;;
23716;SDS011;22094;52.130;5.598;2023-05-07T08:58:41;29.50;;;25.67;;
23716;SDS011;22094;52.130;5.598;2023-05-07T09:01:08;30.92;;;27.58;;
23716;SDS011;22094;52.130;5.598;2023-05-07T09:03:36;32.35;;;27.15;;
23716;SDS011;22094;52.130;5.598;2023-05-07T09:06:03;35.72;;;29.20;;
23716;SDS011;22094;52.130;5.598;2023-05-07T09:08:29;32.35;;;27.33;;
23716;SDS011;22094;52.130;5.598;2023-05-07T09:10:57;34.15;;;28.85;;
23716;SDS011;22094;52.130;5.598;2023-05-07T09:13:23;36.10;;;29.55;;
23716;SDS011;22094;52.130;5.598;2023-05-07T09:15:49;34.40;;;29.75;;
23716;SDS011;22094;52.130;5.598;2023-05-07T09:18:15;36.40;;;30.13;;
23716;SDS011;22094;52.130;5.598;2023-05-07T09:20:41;33.03;;;28.13;;
23716;SDS011;22094;52.130;5.598;2023-05-07T09:23:07;31.50;;;28.00;;
23716;SDS011;22094;52.130;5.598;2023-05-07T09:25:33;34.17;;;27.73;;
23716;SDS011;22094;52.130;5.598;2023-05-07T09:28:00;30.20;;;26.52;;
23716;SDS011;22094;52.130;5.598;2023-05-07T09:30:30;29.42;;;26.10;;
23716;SDS011;22094;52.130;5.598;2023-05-07T09:33:00;28.50;;;25.40;;
23716;SDS011;22094;52.130;5.598;2023-05-07T09:35:26;28.73;;;25.48;;
23716;SDS011;22094;52.130;5.598;2023-05-07T09:37:53;29.55;;;24.13;;
23716;SDS011;22094;52.130;5.598;2023-05-07T09:40:27;28.83;;;25.38;;
23716;SDS011;22094;52.130;5.598;2023-05-07T09:42:54;35.47;;;26.38;;
23716;SDS011;22094;52.130;5.598;2023-05-07T09:45:21;33.63;;;26.90;;
23716;SDS011;22094;52.130;5.598;2023-05-07T09:47:57;28.42;;;25.13;;
23716;SDS011;22094;52.130;5.598;2023-05-07T09:50:30;27.83;;;24.85;;
23716;SDS011;22094;52.130;5.598;2023-05-07T09:52:59;26.60;;;23.73;;
23716;SDS011;22094;52.130;5.598;2023-05-07T09:55:26;29.00;;;24.42;;
23716;SDS011;22094;52.130;5.598;2023-05-07T09:57:53;25.92;;;21.40;;
23716;SDS011;22094;52.130;5.598;2023-05-07T10:00:20;28.05;;;21.13;;
23716;SDS011;22094;52.130;5.598;2023-05-07T10:02:48;24.60;;;21.85;;
23716;SDS011;22094;52.130;5.598;2023-05-07T10:05:16;25.48;;;20.50;;
23716;SDS011;22094;52.130;5.598;2023-05-07T10:07:42;20.95;;;18.75;;
23716;SDS011;22094;52.130;5.598;2023-05-07T10:10:08;21.08;;;18.13;;
23716;SDS011;22094;52.130;5.598;2023-05-07T10:12:34;20.80;;;18.65;;
23716;SDS011;22094;52.130;5.598;2023-05-07T10:15:06;22.23;;;18.70;;
23716;SDS011;22094;52.130;5.598;2023-05-07T10:17:37;20.25;;;18.15;;
23716;SDS011;22094;52.130;5.598;2023-05-07T10:20:04;20.45;;;18.27;;
23716;SDS011;22094;52.130;5.598;2023-05-07T10:22:37;25.30;;;18.02;;
23716;SDS011;22094;52.130;5.598;2023-05-07T10:25:09;19.85;;;17.75;;
23716;SDS011;22094;52.130;5.598;2023-05-07T10:27:40;21.15;;;19.00;;
23716;SDS011;22094;52.130;5.598;2023-05-07T10:30:12;22.20;;;18.63;;
23716;SDS011;22094;52.130;5.598;2023-05-07T10:32:49;21.20;;;18.45;;
23716;SDS011;22094;52.130;5.598;2023-05-07T10:35:17;20.48;;;18.38;;
23716;SDS011;22094;52.130;5.598;2023-05-07T10:37:45;20.77;;;18.50;;
23716;SDS011;22094;52.130;5.598;2023-05-07T10:40:12;21.95;;;19.42;;
23716;SDS011;22094;52.130;5.598;2023-05-07T10:42:38;23.15;;;19.40;;
23716;SDS011;22094;52.130;5.598;2023-05-07T10:45:13;21.30;;;19.10;;
23716;SDS011;22094;52.130;5.598;2023-05-07T10:50:41;20.58;;;18.38;;
23716;SDS011;22094;52.130;5.598;2023-05-07T10:55:43;20.92;;;18.27;;
23716;SDS011;22094;52.130;5.598;2023-05-07T11:00:50;19.85;;;17.65;;
23716;SDS011;22094;52.130;5.598;2023-05-07T11:03:20;19.40;;;17.40;;
23716;SDS011;22094;52.130;5.598;2023-05-07T11:05:47;18.85;;;16.73;;
23716;SDS011;22094;52.130;5.598;2023-05-07T11:08:52;18.40;;;16.65;;
23716;SDS011;22094;52.130;5.598;2023-05-07T11:11:18;19.27;;;15.98;;
23716;SDS011;22094;52.130;5.598;2023-05-07T11:13:45;16.98;;;15.30;;
23716;SDS011;22094;52.130;5.598;2023-05-07T11:16:18;17.25;;;15.55;;
23716;SDS011;22094;52.130;5.598;2023-05-07T11:18:48;20.38;;;16.80;;
23716;SDS011;22094;52.130;5.598;2023-05-07T11:24:13;17.45;;;15.63;;
23716;SDS011;22094;52.130;5.598;2023-05-07T11:26:50;18.13;;;16.13;;
23716;SDS011;22094;52.130;5.598;2023-05-07T11:29:19;19.48;;;15.85;;
23716;SDS011;22094;52.130;5.598;2023-05-07T11:31:49;17.42;;;15.63;;
23716;SDS011;22094;52.130;5.598;2023-05-07T11:34:20;16.83;;;15.15;;
23716;SDS011;22094;52.130;5.598;2023-05-07T11:36:50;19.92;;;17.92;;
23716;SDS011;22094;52.130;5.598;2023-05-07T11:39:28;19.70;;;17.60;;
23716;SDS011;22094;52.130;5.598;2023-05-07T11:41:56;20.10;;;16.75;;
23716;SDS011;22094;52.130;5.598;2023-05-07T11:44:22;20.38;;;16.58;;
23716;SDS011;22094;52.130;5.598;2023-05-07T11:46:48;18.85;;;16.95;;
23716;SDS011;22094;52.130;5.598;2023-05-07T11:49:14;18.20;;;16.40;;
23716;SDS011;22094;52.130;5.598;2023-05-07T11:51:40;17.02;;;15.32;;
23716;SDS011;22094;52.130;5.598;2023-05-07T11:54:07;17.10;;;15.35;;
23716;SDS011;22094;52.130;5.598;2023-05-07T11:56:34;18.23;;;16.42;;
23716;SDS011;22094;52.130;5.598;2023-05-07T11:59:00;17.67;;;15.82;;
23716;SDS011;22094;52.130;5.598;2023-05-07T12:01:26;18.52;;;16.58;;
23716;SDS011;22094;52.130;5.598;2023-05-07T12:03:52;18.98;;;16.70;;
23716;SDS011;22094;52.130;5.598;2023-05-07T12:06:17;19.40;;;17.30;;
23716;SDS011;22094;52.130;5.598;2023-05-07T12:08:44;18.50;;;16.50;;
23716;SDS011;22094;52.130;5.598;2023-05-07T12:11:21;17.08;;;15.35;;
23716;SDS011;22094;52.130;5.598;2023-05-07T12:13:48;18.63;;;16.10;;
23716;SDS011;22094;52.130;5.598;2023-05-07T12:16:13;19.08;;;16.27;;
23716;SDS011;22094;52.130;5.598;2023-05-07T12:18:39;17.60;;;15.80;;
23716;SDS011;22094;52.130;5.598;2023-05-07T12:21:06;17.65;;;15.27;;
23716;SDS011;22094;52.130;5.598;2023-05-07T12:23:35;17.92;;;15.18;;
23716;SDS011;22094;52.130;5.598;2023-05-07T12:26:02;18.63;;;15.43;;
23716;SDS011;22094;52.130;5.598;2023-05-07T12:28:28;19.52;;;15.68;;
23716;SDS011;22094;52.130;5.598;2023-05-07T12:30:53;17.58;;;15.25;;
23716;SDS011;22094;52.130;5.598;2023-05-07T12:33:23;17.77;;;15.93;;
23716;SDS011;22094;52.130;5.598;2023-05-07T12:35:50;16.42;;;14.77;;
23716;SDS011;22094;52.130;5.598;2023-05-07T12:38:16;17.17;;;15.30;;
23716;SDS011;22094;52.130;5.598;2023-05-07T12:40:43;16.48;;;14.77;;
23716;SDS011;22094;52.130;5.598;2023-05-07T12:43:31;17.77;;;15.75;;
23716;SDS011;22094;52.130;5.598;2023-05-07T12:45:57;18.95;;;16.92;;
23716;SDS011;22094;52.130;5.598;2023-05-07T12:48:25;17.13;;;15.35;;
23716;SDS011;22094;52.130;5.598;2023-05-07T12:50:55;21.60;;;17.25;;
23716;SDS011;22094;52.130;5.598;2023-05-07T12:53:22;19.20;;;17.30;;
23716;SDS011;22094;52.130;5.598;2023-05-07T12:55:49;17.88;;;15.68;;
23716;SDS011;22094;52.130;5.598;2023-05-07T12:58:17;17.33;;;15.63;;
23716;SDS011;22094;52.130;5.598;2023-05-07T13:00:53;18.25;;;16.35;;
23716;SDS011;22094;52.130;5.598;2023-05-07T13:03:24;19.88;;;17.08;;
23716;SDS011;22094;52.130;5.598;2023-05-07T13:05:51;17.60;;;15.80;;
23716;SDS011;22094;52.130;5.598;2023-05-07T13:08:24;18.30;;;16.13;;
23716;SDS011;22094;52.130;5.598;2023-05-07T13:10:55;22.35;;;16.55;;
23716;SDS011;22094;52.130;5.598;2023-05-07T13:13:22;16.90;;;15.10;;
23716;SDS011;22094;52.130;5.598;2023-05-07T13:15:47;15.38;;;13.27;;
23716;SDS011;22094;52.130;5.598;2023-05-07T13:18:13;17.77;;;14.77;;
23716;SDS011;22094;52.130;5.598;2023-05-07T13:20:39;14.75;;;12.93;;
23716;SDS011;22094;52.130;5.598;2023-05-07T13:23:05;15.77;;;14.18;;
23716;SDS011;22094;52.130;5.598;2023-05-07T13:25:31;15.13;;;13.70;;
23716;SDS011;22094;52.130;5.598;2023-05-07T13:27:57;13.57;;;12.02;;
23716;SDS011;22094;52.130;5.598;2023-05-07T13:30:22;14.43;;;11.48;;
23716;SDS011;22094;52.130;5.598;2023-05-07T13:32:48;13.38;;;11.98;;
23716;SDS011;22094;52.130;5.598;2023-05-07T13:35:15;15.48;;;12.68;;
23716;SDS011;22094;52.130;5.598;2023-05-07T13:37:41;14.52;;;12.35;;
23716;SDS011;22094;52.130;5.598;2023-05-07T13:40:07;18.05;;;12.52;;
23716;SDS011;22094;52.130;5.598;2023-05-07T13:42:33;13.13;;;11.43;;
23716;SDS011;22094;52.130;5.598;2023-05-07T13:44:58;13.77;;;12.38;;
23716;SDS011;22094;52.130;5.598;2023-05-07T13:47:24;16.23;;;13.60;;
23716;SDS011;22094;52.130;5.598;2023-05-07T13:49:50;15.80;;;13.15;;
23716;SDS011;22094;52.130;5.598;2023-05-07T13:52:16;15.57;;;13.90;;
23716;SDS011;22094;52.130;5.598;2023-05-07T13:54:41;16.13;;;14.10;;
23716;SDS011;22094;52.130;5.598;2023-05-07T13:57:07;16.10;;;14.40;;
23716;SDS011;22094;52.130;5.598;2023-05-07T13:59:33;16.20;;;14.10;;
23716;SDS011;22094;52.130;5.598;2023-05-07T14:01:58;15.98;;;14.27;;
23716;SDS011;22094;52.130;5.598;2023-05-07T14:04:24;18.02;;;14.57;;
23716;SDS011;22094;52.130;5.598;2023-05-07T14:06:50;17.27;;;14.63;;
23716;SDS011;22094;52.130;5.598;2023-05-07T14:09:16;17.10;;;15.32;;
23716;SDS011;22094;52.130;5.598;2023-05-07T14:11:42;15.90;;;14.30;;
23716;SDS011;22094;52.130;5.598;2023-05-07T14:14:08;16.98;;;14.05;;
23716;SDS011;22094;52.130;5.598;2023-05-07T14:16:37;16.33;;;14.30;;
23716;SDS011;22094;52.130;5.598;2023-05-07T14:19:02;17.27;;;14.77;;
23716;SDS011;22094;52.130;5.598;2023-05-07T14:21:28;18.17;;;14.05;;
23716;SDS011;22094;52.130;5.598;2023-05-07T14:23:55;15.57;;;13.57;;
23716;SDS011;22094;52.130;5.598;2023-05-07T14:26:21;15.43;;;13.70;;
23716;SDS011;22094;52.130;5.598;2023-05-07T14:28:48;14.77;;;12.90;;
23716;SDS011;22094;52.130;5.598;2023-05-07T14:31:13;18.55;;;13.02;;